createdAt,value
2018-06-15T00:03:50.320Z,33.10
2018-06-15T00:08:53.352Z,32.10
2018-06-15T00:13:56.405Z,32.90
2018-06-15T00:18:59.478Z,31.80
2018-06-15T00:24:04.042Z,30.63
2018-06-15T00:29:07.093Z,30.17
2018-06-15T00:34:10.321Z,32.90
2018-06-15T00:39:14.369Z,34.47
2018-06-15T00:49:45.692Z,32.50
2018-06-15T00:54:49.875Z,32.73
2018-06-15T00:59:54.200Z,31.27
2018-06-15T01:05:16.737Z,33.13
2018-06-15T01:10:20.985Z,31.43
2018-06-15T01:15:24.596Z,30.53
2018-06-15T01:20:27.955Z,31.47
2018-06-15T01:25:39.281Z,32.13
2018-06-15T01:30:43.381Z,30.23
2018-06-15T01:35:47.178Z,29.60
2018-06-15T01:40:50.437Z,30.03
2018-06-15T01:45:53.589Z,26.87
2018-06-15T01:51:17.581Z,26.17
2018-06-15T01:56:20.638Z,27.17
2018-06-15T02:01:25.582Z,26.33
2018-06-15T02:06:28.617Z,25.40
2018-06-15T02:11:31.682Z,24.77
2018-06-15T02:16:34.750Z,25.00
2018-06-15T02:21:38.925Z,28.37
2018-06-15T02:26:41.965Z,28.07
2018-06-15T02:31:45.047Z,29.30
2018-06-15T02:36:48.107Z,28.37
2018-06-15T02:41:53.765Z,28.33
2018-06-15T02:46:57.873Z,29.37
2018-06-15T02:52:00.929Z,30.90
2018-06-15T02:57:03.982Z,30.03
2018-06-15T03:07:17.459Z,31.90
2018-06-15T03:12:20.593Z,32.57
2018-06-15T03:17:23.694Z,32.67
2018-06-15T03:22:29.650Z,32.00
2018-06-15T03:27:32.734Z,33.90
2018-06-15T03:32:35.785Z,33.90
2018-06-15T03:37:38.984Z,33.60
2018-06-15T03:42:41.954Z,35.40
2018-06-15T03:47:44.989Z,34.60
2018-06-15T03:52:48.177Z,34.70
2018-06-15T03:57:51.269Z,33.13
2018-06-15T04:02:54.217Z,32.23
2018-06-15T04:07:57.286Z,32.43
2018-06-15T04:13:00.488Z,30.63
2018-06-15T04:18:05.832Z,30.73
2018-06-15T04:23:08.899Z,30.90
2018-06-15T04:28:12.030Z,30.97
2018-06-15T04:33:15.106Z,33.20
2018-06-15T04:38:18.265Z,33.67
2018-06-15T04:43:22.993Z,34.20
2018-06-15T04:48:26.045Z,32.67
2018-06-15T04:53:29.193Z,35.07
2018-06-15T04:58:58.506Z,32.60
2018-06-15T05:04:01.794Z,33.40
2018-06-15T05:09:07.322Z,33.70
2018-06-15T05:14:10.379Z,34.57
2018-06-15T05:19:13.641Z,38.27
2018-06-15T05:24:16.685Z,32.27
2018-06-15T05:29:19.752Z,34.30
2018-06-15T05:34:23.348Z,35.80
2018-06-15T05:39:26.672Z,35.07
2018-06-15T05:44:29.710Z,35.87
2018-06-15T05:49:32.852Z,35.47
2018-06-15T05:54:35.990Z,36.77
2018-06-15T05:59:39.645Z,38.23
2018-06-15T06:04:42.602Z,40.53
2018-06-15T06:09:45.760Z,37.20
2018-06-15T06:14:49.022Z,38.73
2018-06-15T06:19:52.129Z,35.27
2018-06-15T06:24:55.392Z,35.03
2018-06-15T06:30:00.242Z,37.10
2018-06-15T06:35:03.507Z,35.73
2018-06-15T06:40:08.361Z,35.10
2018-06-15T06:45:12.733Z,34.80
2018-06-15T06:50:16.179Z,33.50
2018-06-15T06:55:20.280Z,37.30
2018-06-15T07:00:24.146Z,35.20
2018-06-15T07:05:27.402Z,37.10
2018-06-15T07:10:30.561Z,35.27
2018-06-15T07:15:33.617Z,35.60
2018-06-15T07:20:40.285Z,35.77
2018-06-15T07:25:43.717Z,34.43
2018-06-15T07:30:46.778Z,36.93
2018-06-15T07:35:50.225Z,36.37
2018-06-15T07:40:53.292Z,35.93
2018-06-15T07:45:56.383Z,37.30
2018-06-15T07:50:59.455Z,34.20
2018-06-15T07:56:02.749Z,33.47
2018-06-15T08:01:06.422Z,31.20
2018-06-15T08:06:09.473Z,28.37
2018-06-15T08:11:12.849Z,32.43
2018-06-15T08:16:16.606Z,27.17
2018-06-15T08:21:19.923Z,25.73
2018-06-15T08:26:26.435Z,25.53
2018-06-15T08:31:30.353Z,25.40
2018-06-15T08:36:33.457Z,23.23
2018-06-15T08:41:36.560Z,22.17
2018-06-15T08:46:39.782Z,20.93
2018-06-15T08:51:43.105Z,22.67
2018-06-15T08:56:46.302Z,19.87
2018-06-15T09:01:49.666Z,18.47
2018-06-15T09:06:52.943Z,17.33
2018-06-15T09:12:20.979Z,20.17
2018-06-15T09:17:24.051Z,21.37
2018-06-15T09:22:27.362Z,20.37
2018-06-15T09:27:30.256Z,21.33
2018-06-15T09:32:33.511Z,19.23
2018-06-15T09:37:36.884Z,17.27
2018-06-15T09:42:39.969Z,14.70
2018-06-15T09:47:43.261Z,16.10
2018-06-15T09:52:46.450Z,13.83
2018-06-15T09:57:49.881Z,14.90
2018-06-15T10:02:52.935Z,16.60
2018-06-15T10:07:55.969Z,15.83
2018-06-15T10:13:00.416Z,16.27
2018-06-15T10:18:03.483Z,14.50
2018-06-15T10:23:06.550Z,15.17
2018-06-15T10:28:10.889Z,16.33
2018-06-15T10:33:23.677Z,18.50
2018-06-15T10:38:26.729Z,17.13
2018-06-15T10:43:52.982Z,15.60
2018-06-15T10:48:56.043Z,15.37
2018-06-15T10:53:59.577Z,16.27
2018-06-15T10:59:02.849Z,15.00
2018-06-15T11:04:05.901Z,14.07
2018-06-15T11:09:09.521Z,12.03
2018-06-15T11:14:12.910Z,12.13
2018-06-15T11:19:15.961Z,11.63
2018-06-15T11:24:19.026Z,11.83
2018-06-15T11:29:22.078Z,11.20
2018-06-15T11:34:30.781Z,10.50
2018-06-15T11:39:34.717Z,11.50
2018-06-15T11:44:38.469Z,11.37
2018-06-15T11:49:41.533Z,11.30
2018-06-15T11:54:45.006Z,12.30
2018-06-15T11:59:48.253Z,11.87
2018-06-15T12:04:51.541Z,11.87
2018-06-15T12:09:54.585Z,11.83
2018-06-15T12:14:57.637Z,13.13
2018-06-15T12:20:00.701Z,10.90
2018-06-15T12:25:03.940Z,11.47
2018-06-15T12:30:06.996Z,11.10
2018-06-15T12:35:10.041Z,13.37
2018-06-15T12:40:13.083Z,13.43
2018-06-15T12:45:16.125Z,13.37
2018-06-15T12:50:19.176Z,14.07
2018-06-15T12:55:22.304Z,12.77
2018-06-15T13:00:25.369Z,13.63
2018-06-15T13:05:28.472Z,11.77
2018-06-15T13:10:38.165Z,12.70
2018-06-15T13:15:41.230Z,13.97
2018-06-15T13:20:44.289Z,14.53
2018-06-15T13:25:47.453Z,13.87
2018-06-15T13:30:50.637Z,14.87
2018-06-15T13:35:53.733Z,13.40
2018-06-15T13:40:56.812Z,12.17
2018-06-15T13:45:59.877Z,12.57
2018-06-15T13:51:02.929Z,13.93
2018-06-15T13:56:06.049Z,12.53
2018-06-15T14:01:09.241Z,12.67
2018-06-15T14:06:12.532Z,13.50
2018-06-15T14:11:15.577Z,12.73
2018-06-15T14:16:18.637Z,15.23
2018-06-15T14:21:21.706Z,13.80
2018-06-15T14:26:24.781Z,13.90
2018-06-15T14:31:27.829Z,13.20
2018-06-15T14:36:30.893Z,14.50
2018-06-15T14:41:34.009Z,14.23
2018-06-15T14:46:37.073Z,12.97
2018-06-15T14:51:40.121Z,11.37
2018-06-15T14:56:43.347Z,12.07
2018-06-15T15:01:46.365Z,12.83
2018-06-15T15:06:49.516Z,13.57
2018-06-15T15:11:52.557Z,15.70
2018-06-15T15:16:55.609Z,12.43
2018-06-15T15:21:59.516Z,13.73
2018-06-15T15:27:02.420Z,13.73
2018-06-15T15:32:05.490Z,12.03
2018-06-15T15:37:08.538Z,13.93
2018-06-15T15:42:11.656Z,14.13
2018-06-15T15:47:14.704Z,13.47
2018-06-15T15:52:17.765Z,12.67
2018-06-15T15:57:20.812Z,11.70
2018-06-15T16:02:23.858Z,12.53
2018-06-15T16:07:26.937Z,11.37
2018-06-15T16:12:29.981Z,12.57
2018-06-15T16:17:33.056Z,11.93
2018-06-15T16:22:36.091Z,13.57
2018-06-15T16:27:39.144Z,13.40
2018-06-15T16:32:42.204Z,11.73
2018-06-15T16:37:45.260Z,12.57
2018-06-15T16:42:48.305Z,11.03
2018-06-15T16:47:51.357Z,11.67
2018-06-15T16:52:54.506Z,10.47
2018-06-15T16:57:57.561Z,10.90
2018-06-15T17:03:00.620Z,11.17
2018-06-15T17:08:03.676Z,10.00
2018-06-15T17:13:06.712Z,11.93
2018-06-15T17:18:24.576Z,11.90
2018-06-15T17:23:27.651Z,61.63
2018-06-15T17:28:30.681Z,65.63
2018-06-15T17:33:33.740Z,12.00
2018-06-15T17:38:36.789Z,22.13
2018-06-15T17:43:39.838Z,33.30
2018-06-15T17:48:42.973Z,11.67
2018-06-15T17:53:46.049Z,20.80
2018-06-15T17:58:49.269Z,10.53
2018-06-15T18:03:52.383Z,9.30
2018-06-15T18:08:55.546Z,10.87
2018-06-15T18:13:58.369Z,10.20
2018-06-15T18:19:01.477Z,10.10
2018-06-15T18:24:04.676Z,9.70
2018-06-15T18:29:07.956Z,9.90
2018-06-15T18:34:11.440Z,11.63
2018-06-15T18:39:15.081Z,9.47
2018-06-15T18:44:18.198Z,10.77
2018-06-15T18:49:21.340Z,10.63
2018-06-15T18:54:24.449Z,10.23
2018-06-15T18:59:27.461Z,10.87
2018-06-15T19:04:30.516Z,10.23
2018-06-15T19:09:33.581Z,10.33
2018-06-15T19:14:36.638Z,10.07
2018-06-15T19:19:39.702Z,10.30
2018-06-15T19:24:42.744Z,10.20
2018-06-15T19:30:03.002Z,10.43
2018-06-15T19:35:06.045Z,9.80
2018-06-15T19:40:09.089Z,11.07
2018-06-15T19:45:12.165Z,10.90
2018-06-15T19:50:33.770Z,11.93
2018-06-15T19:55:36.826Z,11.10
2018-06-15T20:00:39.864Z,10.80
2018-06-15T20:05:42.980Z,11.10
2018-06-15T20:10:56.295Z,10.03
2018-06-15T20:15:59.324Z,10.77
2018-06-15T20:21:02.409Z,10.67
2018-06-15T20:26:06.129Z,10.43
2018-06-15T20:31:09.230Z,11.80
2018-06-15T20:36:12.320Z,10.83
2018-06-15T20:41:15.380Z,10.07
2018-06-15T20:46:18.493Z,9.83
2018-06-15T20:51:21.548Z,9.60
2018-06-15T20:56:24.629Z,9.97
2018-06-15T21:01:27.730Z,9.83
2018-06-15T21:06:30.777Z,9.67
2018-06-15T21:11:33.921Z,9.77
2018-06-15T21:16:36.973Z,9.63
2018-06-15T21:21:40.017Z,9.67
2018-06-15T21:26:43.089Z,10.00
2018-06-15T21:31:46.146Z,9.77
2018-06-15T21:36:49.197Z,9.80
2018-06-15T21:41:52.252Z,10.27
2018-06-15T21:46:55.318Z,9.63
2018-06-15T21:51:58.505Z,10.27
2018-06-15T21:57:01.548Z,9.63
2018-06-15T22:02:04.671Z,8.90
2018-06-15T22:07:07.715Z,10.27
2018-06-15T22:12:10.777Z,9.70
2018-06-15T22:17:13.850Z,8.73
2018-06-15T22:22:16.906Z,9.60
2018-06-15T22:32:47.721Z,8.63
2018-06-15T22:37:50.748Z,9.10
2018-06-15T22:42:53.797Z,9.63
2018-06-15T22:47:56.849Z,9.43
2018-06-15T22:53:00.992Z,9.60
2018-06-15T22:58:04.101Z,10.27
2018-06-15T23:03:07.261Z,10.40
2018-06-15T23:08:10.357Z,10.07
2018-06-15T23:13:13.408Z,9.70
2018-06-15T23:18:16.681Z,9.40
2018-06-15T23:23:19.833Z,9.43
2018-06-15T23:28:22.893Z,9.87
2018-06-15T23:33:26.053Z,10.17
2018-06-15T23:38:29.121Z,10.23
2018-06-15T23:43:32.178Z,10.47
2018-06-15T23:48:35.226Z,9.90
2018-06-15T23:53:38.256Z,10.60
2018-06-15T23:58:41.299Z,9.57
